createdAt,value
2018-08-20T00:01:52.730Z,71.70
2018-08-20T00:04:21.526Z,71.50
2018-08-20T00:06:55.574Z,71.70
2018-08-20T00:09:35.551Z,72.20
2018-08-20T00:12:05.559Z,72.00
2018-08-20T00:14:34.389Z,72.40
2018-08-20T00:17:03.265Z,71.60
2018-08-20T00:19:32.154Z,72.10
2018-08-20T00:22:01.192Z,71.60
2018-08-20T00:24:30.037Z,71.40
2018-08-20T00:27:01.509Z,71.70
2018-08-20T00:29:30.374Z,72.00
2018-08-20T00:31:59.201Z,71.80
2018-08-20T00:34:28.141Z,72.70
2018-08-20T00:36:56.976Z,72.40
2018-08-20T00:39:25.804Z,71.80
2018-08-20T00:41:55.224Z,72.20
2018-08-20T00:44:24.044Z,72.00
2018-08-20T00:46:52.856Z,72.10
2018-08-20T00:49:21.735Z,72.20
2018-08-20T00:51:50.573Z,71.70
2018-08-20T00:54:19.393Z,72.10
2018-08-20T00:56:48.316Z,71.40
2018-08-20T00:59:17.137Z,71.50
2018-08-20T01:01:45.965Z,71.80
2018-08-20T01:04:15.056Z,71.80
2018-08-20T01:06:43.884Z,71.70
2018-08-20T01:09:12.712Z,71.60
2018-08-20T01:11:41.930Z,71.60
2018-08-20T01:14:10.751Z,71.80
2018-08-20T01:16:39.643Z,72.20
2018-08-20T01:19:08.511Z,72.30
2018-08-20T01:21:37.311Z,72.70
2018-08-20T01:24:06.158Z,72.20
2018-08-20T01:26:35.017Z,72.30
2018-08-20T01:29:03.859Z,72.50
2018-08-20T01:31:32.678Z,72.70
2018-08-20T01:34:01.560Z,72.30
2018-08-20T01:36:30.372Z,72.20
2018-08-20T01:38:59.208Z,72.00
2018-08-20T01:41:28.067Z,72.20
2018-08-20T01:43:57.100Z,72.20
2018-08-20T01:46:25.924Z,72.20
2018-08-20T01:48:54.882Z,72.40
2018-08-20T01:51:23.697Z,72.80
2018-08-20T01:53:52.514Z,72.60
2018-08-20T01:56:21.420Z,72.80
2018-08-20T01:58:50.276Z,73.00
2018-08-20T02:01:19.105Z,73.20
2018-08-20T02:03:48.053Z,73.70
2018-08-20T02:06:16.880Z,73.40
2018-08-20T02:08:45.756Z,72.60
2018-08-20T02:11:14.691Z,72.50
2018-08-20T02:13:43.520Z,72.20
2018-08-20T02:16:12.347Z,72.40
2018-08-20T02:18:41.284Z,72.90
2018-08-20T02:21:10.177Z,72.70
2018-08-20T02:23:38.997Z,73.00
2018-08-20T02:26:08.092Z,72.60
2018-08-20T02:28:36.918Z,72.40
2018-08-20T02:31:05.800Z,72.30
2018-08-20T02:33:34.656Z,72.20
2018-08-20T02:36:03.489Z,72.60
2018-08-20T02:38:32.309Z,72.80
2018-08-20T02:41:01.228Z,72.90
2018-08-20T02:43:30.066Z,72.00
2018-08-20T02:45:58.885Z,72.80
2018-08-20T02:48:27.763Z,73.60
2018-08-20T02:50:56.612Z,73.30
2018-08-20T02:53:25.439Z,73.20
2018-08-20T02:55:54.437Z,72.50
2018-08-20T02:58:23.254Z,71.40
2018-08-20T03:00:52.072Z,72.40
2018-08-20T03:03:21.008Z,73.10
2018-08-20T03:05:49.826Z,72.70
2018-08-20T03:08:18.658Z,72.20
2018-08-20T03:10:47.506Z,72.40
2018-08-20T03:13:16.316Z,72.60
2018-08-20T03:15:45.150Z,72.40
2018-08-20T03:18:14.067Z,72.00
2018-08-20T03:20:42.889Z,72.60
2018-08-20T03:23:11.695Z,72.20
2018-08-20T03:25:40.581Z,72.60
2018-08-20T03:28:09.399Z,73.00
2018-08-20T03:30:38.220Z,72.20
2018-08-20T03:33:07.123Z,72.20
2018-08-20T03:35:35.972Z,73.30
2018-08-20T03:38:04.785Z,74.30
2018-08-20T03:40:33.653Z,74.30
2018-08-20T03:43:02.459Z,74.60
2018-08-20T03:45:31.271Z,73.90
2018-08-20T03:48:00.141Z,73.30
2018-08-20T03:50:28.974Z,73.30
2018-08-20T03:52:57.783Z,73.00
2018-08-20T03:55:26.710Z,73.30
2018-08-20T03:57:55.703Z,73.70
2018-08-20T04:00:24.827Z,73.30
2018-08-20T04:02:53.919Z,73.30
2018-08-20T04:05:22.752Z,73.30
2018-08-20T04:07:51.570Z,73.60
2018-08-20T04:10:20.512Z,74.90
2018-08-20T04:12:49.336Z,74.80
2018-08-20T04:15:18.159Z,74.60
2018-08-20T04:17:47.081Z,74.10
2018-08-20T04:20:15.891Z,74.20
2018-08-20T04:22:44.716Z,74.30
2018-08-20T04:25:13.588Z,74.50
2018-08-20T04:27:42.572Z,74.60
2018-08-20T04:30:11.433Z,74.50
2018-08-20T04:32:40.248Z,74.50
2018-08-20T04:35:09.118Z,74.50
2018-08-20T04:37:37.946Z,74.50
2018-08-20T04:40:07.572Z,74.60
2018-08-20T04:42:36.466Z,74.50
2018-08-20T04:45:06.778Z,74.70
2018-08-20T04:47:35.675Z,74.80
2018-08-20T04:50:05.297Z,74.70
2018-08-20T04:52:34.040Z,74.70
2018-08-20T04:55:02.904Z,74.50
2018-08-20T04:57:31.829Z,74.60
2018-08-20T05:00:00.715Z,74.70
2018-08-20T05:02:29.623Z,74.60
2018-08-20T05:04:58.512Z,74.50
2018-08-20T05:07:27.392Z,74.50
2018-08-20T05:09:56.268Z,74.40
2018-08-20T05:12:25.168Z,74.10
2018-08-20T05:14:54.040Z,74.00
2018-08-20T05:17:22.950Z,74.00
2018-08-20T05:19:52.094Z,73.90
2018-08-20T05:22:20.940Z,73.70
2018-08-20T05:24:50.396Z,74.40
2018-08-20T05:27:19.433Z,73.50
2018-08-20T05:29:49.694Z,73.50
2018-08-20T05:32:18.601Z,73.50
2018-08-20T05:34:47.483Z,73.50
2018-08-20T05:37:16.331Z,73.30
2018-08-20T05:39:45.281Z,73.50
2018-08-20T05:42:14.159Z,73.30
2018-08-20T05:44:42.986Z,73.20
2018-08-20T05:47:11.803Z,72.90
2018-08-20T05:49:40.753Z,73.10
2018-08-20T05:52:09.559Z,73.00
2018-08-20T05:54:38.444Z,73.80
2018-08-20T05:57:07.348Z,72.70
2018-08-20T05:59:36.220Z,72.80
2018-08-20T06:02:05.055Z,72.50
2018-08-20T06:04:33.954Z,72.00
2018-08-20T06:07:02.823Z,72.30
2018-08-20T06:09:31.696Z,71.90
2018-08-20T06:12:00.571Z,71.90
2018-08-20T06:14:29.438Z,71.80
2018-08-20T06:16:58.360Z,72.20
2018-08-20T06:19:27.364Z,71.80
2018-08-20T06:21:56.210Z,71.80
2018-08-20T06:24:25.048Z,72.10
2018-08-20T06:26:54.011Z,71.60
2018-08-20T06:29:22.886Z,71.70
2018-08-20T06:31:51.821Z,71.20
2018-08-20T06:34:20.811Z,71.50
2018-08-20T06:36:49.669Z,71.10
2018-08-20T06:39:18.534Z,70.90
2018-08-20T06:41:47.497Z,70.80
2018-08-20T06:44:16.346Z,70.90
2018-08-20T06:46:45.182Z,70.70
2018-08-20T06:49:14.105Z,70.80
2018-08-20T06:51:42.939Z,70.60
2018-08-20T06:54:11.891Z,70.60
2018-08-20T06:56:40.824Z,70.50
2018-08-20T06:59:09.699Z,69.90
2018-08-20T07:01:39.194Z,69.80
2018-08-20T07:04:08.392Z,70.00
2018-08-20T07:06:37.302Z,69.90
2018-08-20T07:09:07.992Z,69.80
2018-08-20T07:11:36.952Z,69.10
2018-08-20T07:14:05.818Z,68.80
2018-08-20T07:16:34.746Z,69.00
2018-08-20T07:19:03.798Z,69.00
2018-08-20T07:21:32.675Z,68.90
2018-08-20T07:24:02.752Z,68.90
2018-08-20T07:26:31.615Z,69.20
2018-08-20T07:29:00.480Z,69.80
2018-08-20T07:31:29.373Z,68.40
2018-08-20T07:33:58.299Z,69.70
2018-08-20T07:36:27.535Z,69.60
2018-08-20T07:38:56.534Z,68.80
2018-08-20T07:41:25.396Z,68.50
2018-08-20T07:43:54.306Z,68.50
2018-08-20T07:46:23.152Z,67.70
2018-08-20T07:48:52.001Z,66.70
2018-08-20T07:51:20.891Z,66.40
2018-08-20T07:53:49.804Z,66.80
2018-08-20T07:56:18.850Z,67.00
2018-08-20T07:58:47.781Z,67.30
2018-08-20T08:01:16.662Z,67.10
2018-08-20T08:03:45.603Z,66.90
2018-08-20T08:06:15.637Z,64.80
2018-08-20T08:08:45.159Z,64.10
2018-08-20T08:11:15.073Z,64.20
2018-08-20T08:13:43.946Z,65.00
2018-08-20T08:16:12.793Z,65.00
2018-08-20T08:18:41.796Z,64.40
2018-08-20T08:21:10.731Z,62.90
2018-08-20T08:23:39.575Z,63.40
2018-08-20T08:26:08.420Z,63.00
2018-08-20T08:28:37.279Z,62.40
2018-08-20T08:31:06.233Z,60.80
2018-08-20T08:33:35.054Z,61.10
2018-08-20T08:36:03.908Z,61.80
2018-08-20T08:38:33.129Z,62.10
2018-08-20T08:41:01.970Z,61.60
2018-08-20T08:43:31.737Z,61.80
2018-08-20T08:46:00.591Z,62.80
2018-08-20T08:48:29.494Z,62.80
2018-08-20T08:50:58.362Z,61.90
2018-08-20T08:53:27.308Z,62.20
2018-08-20T08:55:56.162Z,61.60
2018-08-20T08:58:25.060Z,62.20
2018-08-20T09:00:53.965Z,61.90
2018-08-20T09:03:22.936Z,61.10
2018-08-20T09:05:51.881Z,61.30
2018-08-20T09:08:20.783Z,61.60
2018-08-20T09:10:49.736Z,62.10
2018-08-20T09:13:18.621Z,62.30
2018-08-20T09:15:47.539Z,62.00
2018-08-20T09:18:16.511Z,61.30
2018-08-20T09:20:45.377Z,60.60
2018-08-20T09:23:14.195Z,60.60
2018-08-20T09:25:43.063Z,60.20
2018-08-20T09:28:11.891Z,59.60
2018-08-20T09:30:40.754Z,59.90
2018-08-20T09:33:09.733Z,59.90
2018-08-20T09:35:39.320Z,59.70
2018-08-20T09:38:08.167Z,59.80
2018-08-20T09:40:37.028Z,58.20
2018-08-20T09:43:05.949Z,58.10
2018-08-20T09:45:35.844Z,58.20
2018-08-20T09:48:04.721Z,57.60
2018-08-20T09:50:33.659Z,58.00
2018-08-20T09:53:02.529Z,57.20
2018-08-20T09:55:31.394Z,57.50
2018-08-20T09:58:00.903Z,57.00
2018-08-20T10:00:34.912Z,57.30
2018-08-20T10:03:04.360Z,56.70
2018-08-20T10:05:33.216Z,56.40
2018-08-20T10:08:02.293Z,57.00
2018-08-20T10:10:31.139Z,57.30
2018-08-20T10:12:59.969Z,57.50
2018-08-20T10:15:28.819Z,57.50
2018-08-20T10:17:58.001Z,57.40
2018-08-20T10:20:26.888Z,57.10
2018-08-20T10:22:55.701Z,57.00
2018-08-20T10:25:24.544Z,56.80
2018-08-20T10:27:53.433Z,56.70
2018-08-20T10:30:22.707Z,54.90
2018-08-20T10:32:51.692Z,54.90
2018-08-20T10:35:20.523Z,55.40
2018-08-20T10:37:49.477Z,55.80
2018-08-20T10:40:18.373Z,56.20
2018-08-20T10:42:47.191Z,55.60
2018-08-20T10:45:18.464Z,55.60
2018-08-20T10:47:48.686Z,55.10
2018-08-20T10:50:19.995Z,55.10
2018-08-20T10:52:51.447Z,54.40
2018-08-20T10:55:20.415Z,54.80
2018-08-20T10:57:49.244Z,55.00
2018-08-20T11:00:18.576Z,54.60
2018-08-20T11:02:47.411Z,54.80
2018-08-20T11:05:18.292Z,53.50
2018-08-20T11:07:47.348Z,53.80
2018-08-20T11:10:16.359Z,53.60
2018-08-20T11:12:45.365Z,53.00
2018-08-20T11:15:14.182Z,53.50
2018-08-20T11:17:43.130Z,54.00
2018-08-20T11:20:16.127Z,54.10
2018-08-20T11:22:46.104Z,54.40
2018-08-20T11:25:14.940Z,54.70
2018-08-20T11:27:43.814Z,54.70
2018-08-20T11:30:14.248Z,54.70
2018-08-20T11:32:43.074Z,54.60
2018-08-20T11:35:12.643Z,54.60
2018-08-20T11:37:41.632Z,54.80
2018-08-20T11:40:10.497Z,54.70
2018-08-20T11:42:39.504Z,54.50
2018-08-20T11:45:10.992Z,54.50
2018-08-20T11:47:39.896Z,54.70
2018-08-20T11:50:08.890Z,54.90
2018-08-20T11:52:39.756Z,55.40
2018-08-20T11:55:09.443Z,56.30
2018-08-20T11:57:38.376Z,56.70
2018-08-20T12:00:09.334Z,57.00
2018-08-20T12:02:38.296Z,57.20
2018-08-20T12:05:07.900Z,57.60
2018-08-20T12:07:37.201Z,58.00
2018-08-20T12:10:07.496Z,58.10
2018-08-20T12:12:36.550Z,58.50
2018-08-20T12:15:06.951Z,58.90
2018-08-20T12:17:35.924Z,58.00
2018-08-20T12:20:06.025Z,56.90
2018-08-20T12:22:34.916Z,56.40
2018-08-20T12:25:04.776Z,56.20
2018-08-20T12:27:33.751Z,56.10
2018-08-20T12:30:02.656Z,56.00
2018-08-20T12:32:31.476Z,55.70
2018-08-20T12:35:00.337Z,55.90
2018-08-20T12:37:29.642Z,55.60
2018-08-20T12:39:58.468Z,55.80
2018-08-20T12:42:27.404Z,55.60
2018-08-20T12:44:56.260Z,55.70
2018-08-20T12:47:25.168Z,55.90
2018-08-20T12:49:54.045Z,55.90
2018-08-20T12:52:22.875Z,56.00
2018-08-20T12:54:51.960Z,55.90
2018-08-20T12:57:20.965Z,55.60
2018-08-20T12:59:54.006Z,56.10
2018-08-20T13:02:23.221Z,55.40
2018-08-20T13:04:52.454Z,55.40
2018-08-20T13:07:22.397Z,55.40
2018-08-20T13:09:51.264Z,55.10
2018-08-20T13:12:20.122Z,54.70
2018-08-20T13:14:49.270Z,54.50
2018-08-20T13:17:18.717Z,54.30
2018-08-20T13:19:47.556Z,54.30
2018-08-20T13:22:17.128Z,54.20
2018-08-20T13:24:46.084Z,53.90
2018-08-20T13:27:14.908Z,53.70
2018-08-20T13:29:43.799Z,53.60
2018-08-20T13:32:12.607Z,53.60
2018-08-20T13:34:41.597Z,53.60
2018-08-20T13:37:10.607Z,53.40
2018-08-20T13:39:39.503Z,53.50
2018-08-20T13:42:08.500Z,53.40
2018-08-20T13:44:37.355Z,53.50
2018-08-20T13:47:06.819Z,53.20
2018-08-20T13:49:35.713Z,52.60
2018-08-20T13:52:04.680Z,52.70
2018-08-20T13:54:33.655Z,52.20
2018-08-20T13:57:02.579Z,52.70
2018-08-20T13:59:31.458Z,52.10
2018-08-20T14:02:00.390Z,52.00
2018-08-20T14:04:29.263Z,52.10
2018-08-20T14:06:58.484Z,52.30
2018-08-20T14:09:27.409Z,52.60
2018-08-20T14:11:56.242Z,52.40
2018-08-20T14:14:25.072Z,52.50
2018-08-20T14:16:53.971Z,52.40
2018-08-20T14:19:22.840Z,51.90
2018-08-20T14:21:51.813Z,51.80
2018-08-20T14:24:20.643Z,51.70
2018-08-20T14:26:49.459Z,51.70
2018-08-20T14:29:18.321Z,51.50
2018-08-20T14:31:47.398Z,51.60
2018-08-20T14:34:16.325Z,51.70
2018-08-20T14:36:45.271Z,51.90
2018-08-20T14:39:14.145Z,51.70
2018-08-20T14:41:42.959Z,51.60
2018-08-20T14:44:11.868Z,51.60
2018-08-20T14:46:40.713Z,51.80
2018-08-20T14:49:10.848Z,51.60
2018-08-20T14:51:39.755Z,51.40
2018-08-20T14:54:08.647Z,51.70
2018-08-20T14:56:37.472Z,51.50
2018-08-20T14:59:06.944Z,51.30
2018-08-20T15:01:35.895Z,51.10
2018-08-20T15:04:04.733Z,51.40
2018-08-20T15:06:34.104Z,51.50
2018-08-20T15:09:03.089Z,51.40
2018-08-20T15:11:31.956Z,51.30
2018-08-20T15:14:00.817Z,51.10
2018-08-20T15:16:29.820Z,51.20
2018-08-20T15:18:58.648Z,51.10
2018-08-20T15:21:27.500Z,51.10
2018-08-20T15:23:56.363Z,50.90
2018-08-20T15:26:25.256Z,50.90
2018-08-20T15:28:54.103Z,50.80
2018-08-20T15:31:22.995Z,50.80
2018-08-20T15:33:51.999Z,50.80
2018-08-20T15:36:20.823Z,50.80
2018-08-20T15:38:49.672Z,50.40
2018-08-20T15:41:18.646Z,50.30
2018-08-20T15:43:47.521Z,50.40
2018-08-20T15:46:16.409Z,50.40
2018-08-20T15:48:45.923Z,50.40
2018-08-20T15:51:14.807Z,50.30
2018-08-20T15:53:43.788Z,50.10
2018-08-20T15:56:12.696Z,49.90
2018-08-20T15:58:41.559Z,50.00
2018-08-20T16:01:10.425Z,50.00
2018-08-20T16:03:39.376Z,49.90
2018-08-20T16:06:08.235Z,49.90
2018-08-20T16:08:43.452Z,49.80
2018-08-20T16:11:12.341Z,49.70
2018-08-20T16:13:41.252Z,49.70
2018-08-20T16:16:10.109Z,49.70
2018-08-20T16:18:39.036Z,49.50
2018-08-20T16:21:07.927Z,49.60
2018-08-20T16:23:37.799Z,49.60
2018-08-20T16:26:07.722Z,49.30
2018-08-20T16:28:36.538Z,49.30
2018-08-20T16:31:05.396Z,49.00
2018-08-20T16:33:34.342Z,48.60
2018-08-20T16:36:03.201Z,48.50
2018-08-20T16:38:32.165Z,48.60
2018-08-20T16:41:01.130Z,48.40
2018-08-20T16:43:30.105Z,48.50
2018-08-20T16:45:58.967Z,48.30
2018-08-20T16:48:27.861Z,48.10
2018-08-20T16:50:56.769Z,48.20
2018-08-20T16:53:26.715Z,48.10
2018-08-20T16:55:55.602Z,48.60
2018-08-20T16:58:24.432Z,48.30
2018-08-20T17:00:53.947Z,48.30
2018-08-20T17:03:23.669Z,48.40
2018-08-20T17:05:52.528Z,48.30
2018-08-20T17:08:26.620Z,48.30
2018-08-20T17:10:55.611Z,48.60
2018-08-20T17:13:24.454Z,49.20
2018-08-20T17:15:53.318Z,49.00
2018-08-20T17:18:22.451Z,49.40
2018-08-20T17:20:51.379Z,49.70
2018-08-20T17:23:22.767Z,49.70
2018-08-20T17:25:55.144Z,50.30
2018-08-20T17:28:25.379Z,49.50
2018-08-20T17:30:57.378Z,49.80
2018-08-20T17:33:29.688Z,50.00
2018-08-20T17:35:58.577Z,49.90
2018-08-20T17:38:27.432Z,50.10
2018-08-20T17:40:56.446Z,49.90
2018-08-20T17:43:25.389Z,50.70
2018-08-20T17:45:56.183Z,50.30
2018-08-20T17:48:31.247Z,50.80
2018-08-20T17:51:00.888Z,50.60
2018-08-20T17:53:41.541Z,50.70
2018-08-20T17:56:10.410Z,51.30
2018-08-20T17:58:39.469Z,51.50
2018-08-20T18:01:08.556Z,51.80
2018-08-20T18:03:37.532Z,51.40
2018-08-20T18:06:09.573Z,51.10
2018-08-20T18:08:38.521Z,51.10
2018-08-20T18:11:08.860Z,51.20
2018-08-20T18:13:48.708Z,51.40
2018-08-20T18:16:19.846Z,51.70
2018-08-20T18:18:50.532Z,51.80
2018-08-20T18:21:19.724Z,52.10
2018-08-20T18:23:48.575Z,52.20
2018-08-20T18:26:17.389Z,52.20
2018-08-20T18:28:53.068Z,52.40
2018-08-20T18:31:25.114Z,52.70
2018-08-20T18:33:54.587Z,52.70
2018-08-20T18:36:24.771Z,52.80
2018-08-20T18:39:00.744Z,52.70
2018-08-20T18:41:50.938Z,52.80
2018-08-20T18:44:21.215Z,52.70
2018-08-20T18:46:50.639Z,53.00
2018-08-20T18:49:19.819Z,53.00
2018-08-20T18:52:13.592Z,53.10
2018-08-20T18:54:50.177Z,53.10
2018-08-20T18:57:26.269Z,53.20
2018-08-20T18:59:57.190Z,53.20
2018-08-20T19:02:50.168Z,53.20
2018-08-20T19:05:21.971Z,53.30
2018-08-20T19:07:51.272Z,53.30
2018-08-20T19:10:29.592Z,53.40
2018-08-20T19:12:58.556Z,53.50
2018-08-20T19:15:41.279Z,53.50
2018-08-20T19:18:15.556Z,53.50
2018-08-20T19:20:44.800Z,53.40
2018-08-20T19:23:13.641Z,53.50
2018-08-20T19:25:42.715Z,53.50
2018-08-20T19:28:28.832Z,53.60
2018-08-20T19:30:57.793Z,53.80
2018-08-20T19:33:29.245Z,53.80
2018-08-20T19:35:58.531Z,53.80
2018-08-20T19:38:27.381Z,54.10
2018-08-20T19:41:04.692Z,54.20
2018-08-20T19:43:38.778Z,54.30
2018-08-20T19:46:08.106Z,54.20
2018-08-20T19:48:37.001Z,54.40
2018-08-20T19:51:08.012Z,54.60
2018-08-20T19:53:36.827Z,54.50
2018-08-20T19:56:09.687Z,54.50
2018-08-20T19:58:38.503Z,54.40
2018-08-20T20:01:16.297Z,54.60
2018-08-20T20:03:46.916Z,54.60
2018-08-20T20:06:16.358Z,54.60
2018-08-20T20:08:45.304Z,54.70
2018-08-20T20:11:21.722Z,54.60
2018-08-20T20:13:52.682Z,55.30
2018-08-20T20:16:21.674Z,54.80
2018-08-20T20:18:51.111Z,54.90
2018-08-20T20:21:20.722Z,55.20
2018-08-20T20:23:49.673Z,55.40
2018-08-20T20:26:18.724Z,55.40
2018-08-20T20:28:48.586Z,55.20
2018-08-20T20:31:17.504Z,55.20
2018-08-20T20:33:46.351Z,55.50
2018-08-20T20:36:18.311Z,55.40
2018-08-20T20:38:47.618Z,55.40
2018-08-20T20:41:16.864Z,55.30
2018-08-20T20:43:45.707Z,55.80
2018-08-20T20:46:14.550Z,55.70
2018-08-20T20:48:43.811Z,55.90
2018-08-20T20:51:12.668Z,56.90
2018-08-20T20:53:41.592Z,57.90
2018-08-20T20:56:10.576Z,57.70
2018-08-20T20:58:40.209Z,58.50
2018-08-20T21:01:10.714Z,58.40
2018-08-20T21:03:42.599Z,58.40
2018-08-20T21:06:11.563Z,58.40
2018-08-20T21:08:47.827Z,58.30
2018-08-20T21:11:17.709Z,58.20
2018-08-20T21:13:47.083Z,58.40
2018-08-20T21:16:17.412Z,58.40
2018-08-20T21:18:48.987Z,58.80
2018-08-20T21:21:19.010Z,58.60
2018-08-20T21:23:47.925Z,59.40
2018-08-20T21:26:16.791Z,58.50
2018-08-20T21:28:49.912Z,59.20
2018-08-20T21:31:20.085Z,59.20
2018-08-20T21:33:52.618Z,59.10
2018-08-20T21:36:21.668Z,58.90
2018-08-20T21:38:50.563Z,58.80
2018-08-20T21:41:27.589Z,59.10
2018-08-20T21:43:56.487Z,59.00
2018-08-20T21:46:25.400Z,57.00
2018-08-20T21:48:54.403Z,57.50
2018-08-20T21:51:28.595Z,58.20
2018-08-20T21:53:57.946Z,58.90
2018-08-20T21:56:36.685Z,58.40
2018-08-20T21:59:05.642Z,59.30
2018-08-20T22:01:34.494Z,59.50
2018-08-20T22:04:07.592Z,59.20
2018-08-20T22:06:36.435Z,59.30
2018-08-20T22:09:06.076Z,60.00
2018-08-20T22:11:34.985Z,59.30
2018-08-20T22:14:03.840Z,59.70
2018-08-20T22:16:32.670Z,59.80
2018-08-20T22:19:01.536Z,60.20
2018-08-20T22:21:30.448Z,60.10
2018-08-20T22:24:00.780Z,60.00
2018-08-20T22:26:29.648Z,61.10
2018-08-20T22:28:59.119Z,60.70
2018-08-20T22:31:28.008Z,61.50
2018-08-20T22:34:02.227Z,62.40
2018-08-20T22:36:32.110Z,62.20
2018-08-20T22:39:02.177Z,62.60
2018-08-20T22:41:31.746Z,62.90
2018-08-20T22:44:00.585Z,63.30
2018-08-20T22:46:29.488Z,63.60
2018-08-20T22:49:00.381Z,63.90
2018-08-20T22:51:30.442Z,65.60
2018-08-20T22:54:00.929Z,64.70
2018-08-20T22:56:32.418Z,64.60
2018-08-20T22:59:11.304Z,63.90
2018-08-20T23:01:40.353Z,65.40
2018-08-20T23:04:09.503Z,66.40
2018-08-20T23:06:38.353Z,65.60
2018-08-20T23:09:25.762Z,66.70
2018-08-20T23:11:54.969Z,65.60
2018-08-20T23:14:23.829Z,65.40
2018-08-20T23:16:53.162Z,64.90
2018-08-20T23:19:21.999Z,64.80
2018-08-20T23:21:53.749Z,65.00
2018-08-20T23:24:22.568Z,65.80
2018-08-20T23:26:51.426Z,65.60
2018-08-20T23:29:20.313Z,68.30
2018-08-20T23:31:49.156Z,65.50
2018-08-20T23:34:17.992Z,65.30
2018-08-20T23:36:46.901Z,66.90
2018-08-20T23:39:16.772Z,66.80
2018-08-20T23:41:45.603Z,66.60
2018-08-20T23:44:16.164Z,69.40
2018-08-20T23:46:47.007Z,66.90
2018-08-20T23:49:15.839Z,67.60
2018-08-20T23:51:45.105Z,66.50
2018-08-20T23:54:14.447Z,66.90
2018-08-20T23:56:43.280Z,66.90
2018-08-20T23:59:12.147Z,67.30
